Time;durP1;ratioP1;P1;durP2;ratioP2;P2;SDS_P1;SDS_P2;PMS_P1;PMS_P2;Temp;Humidity;BMP_temperature;BMP_pressure;BME280_temperature;BME280_humidity;BME280_pressure;Samples;Min_cycle;Max_cycle;Signal;HPM_P1;HPM_P2
2021/08/19 00:01:36;;;;;;;15.17;8.63;;;17.10;99.90;;;;;;5049257;28;20918;-61
2021/08/19 00:04:04;;;;;;;15.03;8.27;;;17.10;99.90;;;;;;5051134;28;20467;-61
2021/08/19 00:06:31;;;;;;;14.83;7.63;;;17.10;99.90;;;;;;5051236;28;20484;-61
2021/08/19 00:08:58;;;;;;;15.33;9.67;;;17.10;99.90;;;;;;5051961;28;20447;-61
2021/08/19 00:11:25;;;;;;;10.90;7.17;;;17.10;99.90;;;;;;5051155;28;20572;-61
2021/08/19 00:13:52;;;;;;;12.10;7.80;;;17.10;99.90;;;;;;5049211;28;20538;-61
2021/08/19 00:16:19;;;;;;;13.90;7.60;;;17.00;99.90;;;;;;5052096;28;20455;-61
2021/08/19 00:18:46;;;;;;;11.43;7.37;;;16.90;99.90;;;;;;5049789;28;20464;-61
2021/08/19 00:21:14;;;;;;;14.93;7.80;;;16.90;99.90;;;;;;5046172;28;20534;-61
2021/08/19 00:23:41;;;;;;;11.87;7.23;;;16.90;99.90;;;;;;5051083;28;20819;-61
2021/08/19 00:26:08;;;;;;;13.20;7.03;;;16.90;99.90;;;;;;5051617;28;20544;-61
2021/08/19 00:28:35;;;;;;;12.87;7.17;;;16.90;99.90;;;;;;5051370;28;20467;-61
2021/08/19 00:31:02;;;;;;;11.57;6.90;;;16.90;99.90;;;;;;5051295;28;20488;-61
2021/08/19 00:33:30;;;;;;;10.80;7.30;;;16.90;99.90;;;;;;5050843;28;20464;-61
2021/08/19 00:35:57;;;;;;;9.80;6.47;;;16.90;99.90;;;;;;5050780;28;20460;-61
2021/08/19 00:38:26;;;;;;;9.90;6.60;;;16.90;99.90;;;;;;5050185;28;20471;-61
2021/08/19 00:40:53;;;;;;;9.17;5.63;;;17.00;99.90;;;;;;5052048;28;20444;-61
2021/08/19 00:43:21;;;;;;;12.20;5.60;;;16.90;99.90;;;;;;5049627;28;20472;-61
2021/08/19 00:45:48;;;;;;;8.90;5.90;;;17.00;99.90;;;;;;5050875;28;20488;-61
2021/08/19 00:48:15;;;;;;;10.30;6.37;;;17.00;99.90;;;;;;5051077;28;20451;-61
2021/08/19 00:50:43;;;;;;;8.80;6.03;;;16.90;99.90;;;;;;5050142;28;21070;-61
2021/08/19 00:53:11;;;;;;;8.47;5.60;;;16.90;99.90;;;;;;5050200;28;20468;-61
2021/08/19 00:55:39;;;;;;;10.97;5.90;;;16.90;99.90;;;;;;5050972;28;20464;-61
2021/08/19 00:58:06;;;;;;;8.67;5.63;;;16.90;99.90;;;;;;5050563;28;20541;-60
2021/08/19 01:00:34;;;;;;;10.00;5.53;;;16.90;99.90;;;;;;5051742;28;20504;-61
2021/08/19 01:03:01;;;;;;;8.03;5.87;;;16.90;99.90;;;;;;5050045;28;20492;-61
2021/08/19 01:05:31;;;;;;;8.00;5.83;;;16.90;99.90;;;;;;5044274;28;20546;-61
2021/08/19 01:07:59;;;;;;;7.53;5.53;;;16.90;99.90;;;;;;5051265;28;20444;-61
2021/08/19 01:10:27;;;;;;;8.63;6.13;;;16.90;99.90;;;;;;5049521;28;20471;-61
2021/08/19 01:12:55;;;;;;;8.33;5.40;;;16.90;99.90;;;;;;5047026;28;20566;-61
2021/08/19 01:15:22;;;;;;;10.17;5.70;;;17.00;99.90;;;;;;5048648;28;20498;-61
2021/08/19 01:17:56;;;;;;;6.93;5.03;;;17.00;99.90;;;;;;5050838;28;20468;-61
2021/08/19 01:20:27;;;;;;;9.07;5.20;;;17.00;99.90;;;;;;5051103;28;20526;-61
2021/08/19 01:22:54;;;;;;;7.63;5.37;;;17.10;99.90;;;;;;5042532;28;20546;-61
2021/08/19 01:25:21;;;;;;;6.57;4.73;;;17.10;99.90;;;;;;5050256;28;20480;-61
2021/08/19 01:27:52;;;;;;;9.83;5.40;;;17.10;99.90;;;;;;5050336;28;20533;-61
2021/08/19 01:30:20;;;;;;;8.17;5.30;;;17.10;99.90;;;;;;5050199;28;20463;-61
2021/08/19 01:32:47;;;;;;;6.37;4.50;;;17.10;99.90;;;;;;5049338;28;20559;-61
2021/08/19 01:35:20;;;;;;;9.27;5.57;;;17.20;99.90;;;;;;5050472;28;20953;-61
2021/08/19 01:37:47;;;;;;;11.20;5.93;;;17.20;99.90;;;;;;5050693;28;20525;-61
2021/08/19 01:40:14;;;;;;;9.23;5.47;;;17.10;99.90;;;;;;5050680;28;20459;-61
2021/08/19 01:42:42;;;;;;;9.80;5.87;;;17.10;99.90;;;;;;5049618;28;20491;-61
2021/08/19 01:45:12;;;;;;;10.00;5.33;;;17.10;99.90;;;;;;5048345;28;20479;-61
2021/08/19 01:47:40;;;;;;;8.83;5.83;;;17.10;99.90;;;;;;5049204;28;20459;-60
2021/08/19 01:50:07;;;;;;;9.40;5.87;;;17.20;99.90;;;;;;5050625;28;20460;-61
2021/08/19 01:52:34;;;;;;;8.43;5.53;;;17.20;99.90;;;;;;5048033;28;21017;-61
2021/08/19 01:55:01;;;;;;;11.23;6.10;;;17.20;99.90;;;;;;5049291;28;20521;-61
2021/08/19 01:57:28;;;;;;;10.63;6.00;;;17.20;99.90;;;;;;5051107;28;20440;-60
2021/08/19 01:59:55;;;;;;;10.67;5.63;;;17.20;99.90;;;;;;5048758;28;20456;-60
2021/08/19 02:02:26;;;;;;;9.93;5.87;;;17.20;99.90;;;;;;5049394;28;20483;-61
2021/08/19 02:04:53;;;;;;;9.80;5.80;;;17.00;99.90;;;;;;5042313;28;20435;-61
2021/08/19 02:07:23;;;;;;;10.20;6.67;;;17.00;99.90;;;;;;5050618;28;20444;-61
2021/08/19 02:09:50;;;;;;;8.80;5.47;;;17.00;99.90;;;;;;5050287;28;20525;-61
2021/08/19 02:12:17;;;;;;;9.70;6.17;;;17.10;99.90;;;;;;5047433;28;20529;-61
2021/08/19 02:14:44;;;;;;;10.63;6.00;;;17.10;99.90;;;;;;5048600;28;20515;-61
2021/08/19 02:17:11;;;;;;;9.37;6.03;;;17.10;99.90;;;;;;5050040;28;20647;-61
2021/08/19 02:19:39;;;;;;;8.97;5.60;;;17.00;99.90;;;;;;5050042;28;20956;-61
2021/08/19 02:22:06;;;;;;;10.13;6.07;;;17.10;99.90;;;;;;5046935;28;20483;-61
2021/08/19 02:24:33;;;;;;;10.47;6.40;;;17.10;99.90;;;;;;5048199;28;20516;-61
2021/08/19 02:27:00;;;;;;;12.00;6.30;;;17.10;99.90;;;;;;5050813;28;20537;-61
2021/08/19 02:29:27;;;;;;;8.60;6.13;;;17.00;99.90;;;;;;5053047;28;21031;-61
2021/08/19 02:31:54;;;;;;;8.47;6.47;;;17.20;99.90;;;;;;5051019;28;20556;-62
2021/08/19 02:34:21;;;;;;;10.27;6.40;;;17.10;99.90;;;;;;5053996;28;20958;-61
2021/08/19 02:36:49;;;;;;;11.27;7.13;;;17.10;99.90;;;;;;5053790;28;20471;-61
2021/08/19 02:39:16;;;;;;;10.90;6.40;;;17.00;99.90;;;;;;5054405;28;20879;-60
2021/08/19 02:41:43;;;;;;;9.60;6.27;;;17.00;99.90;;;;;;5052578;28;20533;-60
2021/08/19 02:44:10;;;;;;;9.30;6.30;;;17.00;99.90;;;;;;5050047;28;20463;-60
2021/08/19 02:46:37;;;;;;;10.20;5.97;;;17.10;99.90;;;;;;5052107;28;20542;-60
2021/08/19 02:49:04;;;;;;;10.90;5.90;;;17.00;99.90;;;;;;5053766;28;20501;-60
2021/08/19 02:51:31;;;;;;;12.43;6.77;;;17.00;99.90;;;;;;5053256;28;20487;-60
2021/08/19 02:53:59;;;;;;;8.77;5.83;;;17.00;99.90;;;;;;5053065;28;20510;-61
2021/08/19 02:56:27;;;;;;;9.23;6.10;;;17.00;99.90;;;;;;5053071;28;20878;-61
2021/08/19 02:58:54;;;;;;;9.23;6.30;;;17.00;99.90;;;;;;5053417;28;20452;-60
2021/08/19 03:01:21;;;;;;;12.90;6.20;;;17.10;99.90;;;;;;5053143;28;20787;-60
2021/08/19 03:03:48;;;;;;;9.20;6.50;;;17.10;99.90;;;;;;5048783;28;20560;-60
2021/08/19 03:06:14;;;;;;;11.00;7.20;;;17.10;99.90;;;;;;5052802;28;20543;-60
2021/08/19 03:08:41;;;;;;;10.40;6.30;;;17.00;99.90;;;;;;5053215;28;20459;-61
2021/08/19 03:11:10;;;;;;;12.33;6.60;;;17.00;99.90;;;;;;5052794;28;21013;-60
2021/08/19 03:13:37;;;;;;;12.97;6.00;;;17.00;99.90;;;;;;5053394;28;20447;-60
2021/08/19 03:16:04;;;;;;;8.40;5.80;;;16.90;99.90;;;;;;5046587;28;20881;-60
2021/08/19 03:18:31;;;;;;;8.93;5.87;;;16.90;99.90;;;;;;5052211;28;21115;-60
2021/08/19 03:20:58;;;;;;;10.30;5.60;;;16.90;99.90;;;;;;5053074;28;20549;-60
2021/08/19 03:23:25;;;;;;;10.30;6.63;;;16.90;99.90;;;;;;5053261;28;20448;-60
2021/08/19 03:25:53;;;;;;;14.80;6.80;;;16.90;99.90;;;;;;5052260;28;20891;-60
2021/08/19 03:28:23;;;;;;;10.40;6.37;;;17.00;99.90;;;;;;5052336;28;20525;-60
2021/08/19 03:30:50;;;;;;;13.43;6.53;;;16.90;99.90;;;;;;5051358;28;20463;-60
2021/08/19 03:33:18;;;;;;;8.43;5.97;;;16.80;99.90;;;;;;5052110;28;20471;-60
2021/08/19 03:35:45;;;;;;;12.93;6.70;;;16.70;99.90;;;;;;5052241;28;20502;-61
2021/08/19 03:38:12;;;;;;;11.30;6.20;;;16.70;99.90;;;;;;5050170;28;20895;-60
2021/08/19 03:40:39;;;;;;;10.43;6.23;;;16.80;99.90;;;;;;5043126;28;20961;-60
2021/08/19 03:43:06;;;;;;;11.93;7.20;;;16.80;99.90;;;;;;5043813;28;20521;-59
2021/08/19 03:45:34;;;;;;;12.10;6.40;;;16.80;99.90;;;;;;5039549;28;20511;-60
2021/08/19 03:48:01;;;;;;;12.67;6.57;;;17.00;99.90;;;;;;5043022;28;20464;-60
2021/08/19 03:50:28;;;;;;;11.80;7.00;;;16.90;99.90;;;;;;5044298;28;20482;-60
2021/08/19 03:52:55;;;;;;;9.23;6.10;;;16.90;99.90;;;;;;5043619;28;20490;-60
2021/08/19 03:55:23;;;;;;;14.03;7.50;;;16.90;99.90;;;;;;5043483;28;20964;-59
2021/08/19 03:57:50;;;;;;;13.93;7.20;;;16.90;99.90;;;;;;5043691;28;20462;-60
2021/08/19 04:00:18;;;;;;;12.17;7.30;;;16.80;99.90;;;;;;5048193;28;20468;-60
2021/08/19 04:02:47;;;;;;;14.47;7.73;;;16.80;99.90;;;;;;5043541;28;20586;-59
2021/08/19 04:05:14;;;;;;;12.37;7.50;;;16.80;99.90;;;;;;5041929;28;20460;-59
2021/08/19 04:07:41;;;;;;;12.07;7.10;;;16.80;99.90;;;;;;5043046;28;20498;-60
2021/08/19 04:10:09;;;;;;;13.53;7.50;;;16.80;99.90;;;;;;5041932;28;20492;-60
2021/08/19 04:12:37;;;;;;;12.73;7.33;;;16.70;99.90;;;;;;5049575;28;20490;-60
2021/08/19 04:15:05;;;;;;;12.67;7.70;;;16.70;99.90;;;;;;5049271;28;20459;-60
2021/08/19 04:17:32;;;;;;;17.33;8.03;;;16.70;99.90;;;;;;5042787;28;20475;-60
2021/08/19 04:20:00;;;;;;;17.50;10.20;;;16.70;99.90;;;;;;5042248;28;20475;-60
2021/08/19 04:22:27;;;;;;;14.13;7.60;;;16.80;99.90;;;;;;5043072;28;20479;-60
2021/08/19 04:24:54;;;;;;;13.80;8.20;;;16.70;99.90;;;;;;5043045;28;20476;-60
2021/08/19 04:27:24;;;;;;;13.83;7.60;;;16.80;99.90;;;;;;5044324;28;20520;-60
2021/08/19 04:29:51;;;;;;;14.70;8.20;;;16.80;99.90;;;;;;5042856;28;20459;-60
2021/08/19 04:32:18;;;;;;;14.40;8.13;;;16.80;99.90;;;;;;5043862;28;20484;-60
2021/08/19 04:34:45;;;;;;;14.20;8.60;;;16.80;99.90;;;;;;5043737;28;20471;-60
2021/08/19 04:37:14;;;;;;;16.00;7.87;;;16.80;99.90;;;;;;5050186;28;20467;-61
2021/08/19 04:39:43;;;;;;;13.37;8.03;;;16.80;99.90;;;;;;5041455;28;20875;-60
2021/08/19 04:42:10;;;;;;;16.93;8.67;;;16.80;99.90;;;;;;5040905;28;20549;-60
2021/08/19 04:44:37;;;;;;;14.70;8.17;;;16.80;99.90;;;;;;5043030;28;20838;-60
2021/08/19 04:47:05;;;;;;;19.47;8.77;;;16.80;99.90;;;;;;5044618;28;20479;-60
2021/08/19 04:49:32;;;;;;;14.93;8.17;;;16.70;99.90;;;;;;5044327;28;20460;-60
2021/08/19 04:51:59;;;;;;;15.00;7.60;;;16.80;99.90;;;;;;5044207;28;21016;-60
2021/08/19 04:54:28;;;;;;;14.13;8.67;;;16.80;99.90;;;;;;5041941;28;20456;-60
2021/08/19 04:56:55;;;;;;;15.77;8.37;;;16.80;99.90;;;;;;5042942;28;20847;-60
2021/08/19 04:59:22;;;;;;;15.60;8.30;;;16.80;99.90;;;;;;5042423;28;20464;-60
2021/08/19 05:01:49;;;;;;;19.93;8.70;;;16.80;99.90;;;;;;5039266;28;20508;-61
2021/08/19 05:04:17;;;;;;;20.43;9.97;;;16.80;99.90;;;;;;5038971;28;20492;-60
2021/08/19 05:06:44;;;;;;;11.83;7.23;;;16.90;99.90;;;;;;5038585;28;20499;-61
2021/08/19 05:09:11;;;;;;;15.40;8.03;;;17.00;99.90;;;;;;5039063;28;20495;-61
2021/08/19 05:11:40;;;;;;;16.43;7.90;;;17.00;99.90;;;;;;5038788;28;20559;-61
2021/08/19 05:14:08;;;;;;;15.93;8.53;;;17.00;99.90;;;;;;5039358;28;20463;-60
2021/08/19 05:16:35;;;;;;;16.87;8.80;;;16.90;99.90;;;;;;5039959;28;20944;-61
2021/08/19 05:19:03;;;;;;;14.87;8.40;;;16.90;99.90;;;;;;5039316;28;20470;-60
2021/08/19 05:21:30;;;;;;;19.73;9.93;;;16.90;99.90;;;;;;5042619;28;21209;-61
2021/08/19 05:23:57;;;;;;;18.17;8.20;;;17.00;99.90;;;;;;5039995;28;20509;-61
2021/08/19 05:26:25;;;;;;;17.37;8.43;;;17.10;99.90;;;;;;5039710;28;20487;-61
2021/08/19 05:28:53;;;;;;;15.23;8.40;;;17.20;99.90;;;;;;5042148;28;20456;-61
2021/08/19 05:31:20;;;;;;;15.90;9.23;;;17.20;99.90;;;;;;5038651;28;20479;-61
2021/08/19 05:33:48;;;;;;;13.53;7.60;;;17.20;99.90;;;;;;5039144;28;20456;-60
2021/08/19 05:36:15;;;;;;;16.27;9.20;;;17.30;99.90;;;;;;5041118;28;20558;-60
2021/08/19 05:38:43;;;;;;;12.53;7.20;;;17.50;99.90;;;;;;5039637;28;20470;-60
2021/08/19 05:41:10;;;;;;;13.50;8.57;;;17.60;99.90;;;;;;5043191;28;20483;-60
2021/08/19 05:43:37;;;;;;;15.30;7.10;;;17.70;99.90;;;;;;5049198;28;20456;-60
2021/08/19 05:46:07;;;;;;;13.40;7.47;;;17.80;99.90;;;;;;5049444;28;20491;-60
2021/08/19 05:48:34;;;;;;;11.83;7.00;;;18.00;99.90;;;;;;5049541;28;20462;-60
2021/08/19 05:51:01;;;;;;;16.80;8.27;;;18.20;99.90;;;;;;5049999;28;20545;-60
2021/08/19 05:53:28;;;;;;;15.13;7.70;;;18.50;99.90;;;;;;5049945;28;20882;-60
2021/08/19 05:55:55;;;;;;;14.90;7.40;;;18.90;99.90;;;;;;5050898;28;20863;-61
2021/08/19 05:58:23;;;;;;;15.23;7.23;;;19.30;99.90;;;;;;5043073;28;20464;-61
2021/08/19 06:00:50;;;;;;;15.30;7.87;;;19.50;99.90;;;;;;5045619;28;20465;-60
2021/08/19 06:03:20;;;;;;;14.60;7.53;;;19.50;99.90;;;;;;5049066;28;21014;-60
2021/08/19 06:05:48;;;;;;;12.03;7.23;;;19.80;99.90;;;;;;5053855;28;20456;-61
2021/08/19 06:08:15;;;;;;;11.73;6.90;;;20.60;99.90;;;;;;5054336;28;20483;-61
2021/08/19 06:10:42;;;;;;;10.87;6.17;;;21.10;99.90;;;;;;5054409;28;20455;-61
2021/08/19 06:13:09;;;;;;;11.13;7.00;;;21.70;99.90;;;;;;5054442;28;21007;-60
2021/08/19 06:15:37;;;;;;;11.10;6.50;;;22.10;99.90;;;;;;5050632;28;20451;-61
2021/08/19 06:18:04;;;;;;;11.13;6.07;;;22.50;99.90;;;;;;5052966;28;20536;-62
2021/08/19 06:20:32;;;;;;;8.10;6.03;;;23.00;99.90;;;;;;5047535;28;20510;-62
2021/08/19 06:23:00;;;;;;;11.67;6.83;;;23.60;99.90;;;;;;5053000;28;21054;-61
2021/08/19 06:25:27;;;;;;;12.90;7.83;;;24.30;99.90;;;;;;5052882;28;20922;-61
2021/08/19 06:27:54;;;;;;;9.13;6.30;;;24.80;99.90;;;;;;5046250;28;20534;-62
2021/08/19 06:30:21;;;;;;;12.70;7.70;;;25.00;99.90;;;;;;5052189;28;20447;-61
2021/08/19 06:32:49;;;;;;;10.33;7.27;;;25.10;99.90;;;;;;5052918;28;20534;-60
2021/08/19 06:35:16;;;;;;;9.30;6.87;;;25.30;99.90;;;;;;5053363;28;20509;-60
2021/08/19 06:37:44;;;;;;;9.50;6.43;;;25.40;99.90;;;;;;5049145;28;20444;-60
2021/08/19 06:40:12;;;;;;;10.73;7.50;;;25.50;99.90;;;;;;5053316;28;20480;-60
2021/08/19 06:42:39;;;;;;;12.50;7.13;;;26.20;99.90;;;;;;5052634;28;21002;-60
2021/08/19 06:45:07;;;;;;;8.93;6.90;;;26.60;99.90;;;;;;5048559;28;20867;-60
2021/08/19 06:47:34;;;;;;;12.80;7.90;;;26.80;99.90;;;;;;5053229;28;20533;-60
2021/08/19 06:50:01;;;;;;;10.30;7.60;;;27.00;99.90;;;;;;5053650;28;20501;-61
2021/08/19 06:52:29;;;;;;;10.47;7.03;;;27.30;99.90;;;;;;5053385;28;20479;-60
2021/08/19 06:54:58;;;;;;;10.33;6.00;;;27.40;99.90;;;;;;5052884;28;20513;-61
2021/08/19 06:57:25;;;;;;;9.50;6.43;;;27.60;99.90;;;;;;5053581;28;20539;-60
2021/08/19 06:59:52;;;;;;;10.13;6.53;;;27.20;99.90;;;;;;5053272;28;20498;-60
2021/08/19 07:02:22;;;;;;;10.13;6.80;;;27.50;99.90;;;;;;5053403;28;20475;-61
2021/08/19 07:04:49;;;;;;;9.50;7.27;;;27.90;99.90;;;;;;5053598;28;20463;-61
2021/08/19 07:07:16;;;;;;;12.47;7.60;;;27.60;99.90;;;;;;5053468;28;20533;-61
2021/08/19 07:09:43;;;;;;;11.10;7.10;;;27.50;99.90;;;;;;5053936;28;20930;-61
2021/08/19 07:12:11;;;;;;;9.10;6.57;;;27.90;99.90;;;;;;5052986;28;20468;-61
2021/08/19 07:14:38;;;;;;;10.43;7.23;;;28.20;99.90;;;;;;5053306;28;20916;-60
2021/08/19 07:17:05;;;;;;;13.13;7.60;;;28.80;99.90;;;;;;5052597;28;20444;-61
2021/08/19 07:19:32;;;;;;;10.90;7.00;;;28.40;99.90;;;;;;5053438;28;20505;-61
2021/08/19 07:21:59;;;;;;;8.60;6.80;;;28.20;99.90;;;;;;5052482;28;20517;-61
2021/08/19 07:24:26;;;;;;;12.93;7.90;;;28.20;99.90;;;;;;5052888;28;20521;-61
2021/08/19 07:26:53;;;;;;;12.30;7.83;;;28.00;99.90;;;;;;5053112;28;20557;-60
2021/08/19 07:29:21;;;;;;;10.23;7.53;;;27.80;99.90;;;;;;5053189;28;20502;-61
2021/08/19 07:31:48;;;;;;;10.77;7.07;;;27.10;99.90;;;;;;5049473;28;21051;-61
2021/08/19 07:34:15;;;;;;;12.53;6.70;;;27.10;99.90;;;;;;5053579;28;20456;-61
2021/08/19 07:36:42;;;;;;;10.13;6.20;;;27.40;99.90;;;;;;5052523;28;21018;-61
2021/08/19 07:39:09;;;;;;;9.40;6.30;;;28.10;99.90;;;;;;5052854;28;20447;-61
2021/08/19 07:41:36;;;;;;;10.97;6.37;;;28.20;99.90;;;;;;5053240;28;20478;-61
2021/08/19 07:44:05;;;;;;;9.30;6.40;;;28.50;99.90;;;;;;5053300;28;20452;-61
2021/08/19 07:46:34;;;;;;;8.97;6.63;;;28.20;99.90;;;;;;5052062;28;20456;-61
2021/08/19 07:49:01;;;;;;;7.03;5.00;;;26.40;99.90;;;;;;5037189;28;20520;-60
2021/08/19 07:51:30;;;;;;;3.93;3.53;;;26.50;99.90;;;;;;5052206;28;20503;-60
2021/08/19 07:53:58;;;;;;;3.73;3.10;;;26.20;99.90;;;;;;5052021;28;20440;-60
2021/08/19 07:56:25;;;;;;;3.53;3.03;;;25.00;99.90;;;;;;5052581;28;20937;-60
2021/08/19 07:58:52;;;;;;;4.47;3.53;;;23.00;99.90;;;;;;5052763;28;20949;-60
2021/08/19 08:01:19;;;;;;;9.30;4.30;;;22.00;99.90;;;;;;5050905;28;20537;-60
2021/08/19 08:03:47;;;;;;;3.97;3.37;;;21.20;99.90;;;;;;5051578;28;20452;-59
2021/08/19 08:06:14;;;;;;;3.67;3.20;;;20.60;99.90;;;;;;5052691;28;20456;-59
2021/08/19 08:08:41;;;;;;;3.40;3.10;;;20.40;99.90;;;;;;5048371;28;20483;-60
2021/08/19 08:11:08;;;;;;;7.83;2.90;;;20.40;99.90;;;;;;5052724;28;20475;-59
2021/08/19 08:13:36;;;;;;;3.10;2.80;;;20.80;99.90;;;;;;5052112;28;20502;-59
2021/08/19 08:16:03;;;;;;;3.13;2.80;;;20.50;99.90;;;;;;5052369;28;20452;-60
2021/08/19 08:18:31;;;;;;;3.03;2.73;;;21.00;99.90;;;;;;5052666;28;20846;-60
2021/08/19 08:21:02;;;;;;;3.43;3.13;;;22.00;99.90;;;;;;5051910;28;20513;-60
2021/08/19 08:23:32;;;;;;;2.83;2.53;;;23.40;99.90;;;;;;5051940;28;20451;-60
2021/08/19 08:26:01;;;;;;;4.10;3.13;;;24.60;99.90;;;;;;5052359;28;20455;-60
2021/08/19 08:28:30;;;;;;;2.83;2.53;;;24.00;99.90;;;;;;5052413;28;20483;-59
2021/08/19 08:30:59;;;;;;;2.50;2.17;;;23.60;99.90;;;;;;5050628;28;20945;-60
2021/08/19 08:33:27;;;;;;;5.10;2.80;;;23.80;99.90;;;;;;5051616;28;20888;-60
2021/08/19 08:35:54;;;;;;;3.73;2.40;;;23.60;99.90;;;;;;5051949;28;20451;-60
2021/08/19 08:38:25;;;;;;;3.20;2.67;;;23.40;99.90;;;;;;5052003;28;20977;-60
2021/08/19 08:40:53;;;;;;;3.70;2.50;;;23.70;99.90;;;;;;5052052;28;20460;-60
2021/08/19 08:43:22;;;;;;;3.17;2.83;;;24.30;99.90;;;;;;5051529;28;20539;-60
2021/08/19 08:45:51;;;;;;;3.00;2.70;;;24.20;99.90;;;;;;5050965;28;20452;-59
2021/08/19 08:48:23;;;;;;;4.33;2.80;;;22.90;99.90;;;;;;5051777;28;20487;-60
2021/08/19 08:50:52;;;;;;;3.67;2.50;;;23.30;99.90;;;;;;5051153;28;20454;-60
2021/08/19 08:53:20;;;;;;;2.90;2.50;;;24.50;99.90;;;;;;5048749;28;20465;-60
2021/08/19 08:55:49;;;;;;;4.03;2.70;;;24.70;99.90;;;;;;5051347;28;20459;-59
2021/08/19 08:58:17;;;;;;;2.70;2.50;;;23.90;99.90;;;;;;5051429;28;21011;-59
2021/08/19 09:00:45;;;;;;;2.73;2.50;;;23.60;99.90;;;;;;5051508;28;20463;-60
2021/08/19 09:03:14;;;;;;;5.10;2.70;;;24.00;99.90;;;;;;5050425;28;20454;-59
2021/08/19 09:05:43;;;;;;;3.07;2.77;;;24.50;99.90;;;;;;5051782;28;20502;-59
2021/08/19 09:08:15;;;;;;;2.40;2.20;;;23.90;99.90;;;;;;5051821;28;20483;-59
2021/08/19 09:10:43;;;;;;;3.43;2.90;;;23.30;99.90;;;;;;5051434;28;20972;-59
2021/08/19 09:13:15;;;;;;;2.40;2.10;;;23.30;99.90;;;;;;5050751;28;20444;-59
2021/08/19 09:15:43;;;;;;;3.53;3.23;;;24.60;99.90;;;;;;5051579;28;20463;-59
2021/08/19 09:18:12;;;;;;;3.77;3.30;;;23.90;99.90;;;;;;5051205;28;20448;-59
2021/08/19 09:20:41;;;;;;;16.80;9.23;;;23.60;99.90;;;;;;5051431;28;20451;-59
2021/08/19 09:23:10;;;;;;;10.10;5.40;;;23.40;99.90;;;;;;5051054;28;20513;-59
2021/08/19 09:25:40;;;;;;;37.73;18.53;;;23.80;99.90;;;;;;5051070;28;20827;-59
2021/08/19 09:28:20;;;;;;;45.30;22.70;;;23.30;99.90;;;;;;5051627;28;20475;-59
2021/08/19 09:30:50;;;;;;;66.57;40.50;;;22.80;99.90;;;;;;5051540;28;20454;-59
2021/08/19 09:33:20;;;;;;;12.33;8.63;;;22.30;99.90;;;;;;5053395;28;20904;-59
2021/08/19 09:35:49;;;;;;;3.70;3.33;;;22.10;99.90;;;;;;5051242;28;20459;-58
2021/08/19 09:38:18;;;;;;;2.60;2.40;;;22.00;99.90;;;;;;5044114;28;20449;-59
2021/08/19 09:41:04;;;;;;;2.93;2.53;;;21.90;99.90;;;;;;5052122;28;20490;-59
2021/08/19 09:43:44;;;;;;;8.07;2.80;;;21.80;99.90;;;;;;5037464;28;20452;-59
2021/08/19 09:46:13;;;;;;;5.80;3.23;;;21.70;99.90;;;;;;5039291;28;20795;-58
2021/08/19 09:48:40;;;;;;;3.90;2.30;;;21.60;99.90;;;;;;5046731;28;20478;-58
2021/08/19 09:51:28;;;;;;;3.50;2.40;;;22.30;99.90;;;;;;5034754;28;20465;-58
2021/08/19 09:53:57;;;;;;;3.30;2.20;;;22.70;99.90;;;;;;5031174;28;20506;-58
2021/08/19 09:56:28;;;;;;;3.17;2.87;;;22.70;99.90;;;;;;5037825;28;20458;-58
2021/08/19 09:59:18;;;;;;;2.80;2.57;;;22.80;99.90;;;;;;5051222;28;20444;-58
2021/08/19 10:01:46;;;;;;;2.10;1.90;;;22.50;99.90;;;;;;5053709;28;20514;-59
2021/08/19 10:04:15;;;;;;;2.53;2.33;;;23.10;99.90;;;;;;5054445;28;20448;-58
2021/08/19 10:06:42;;;;;;;3.20;2.60;;;23.70;99.90;;;;;;5054714;28;20451;-59
2021/08/19 10:09:10;;;;;;;2.70;2.50;;;24.20;99.90;;;;;;5054648;28;21024;-59
2021/08/19 10:11:38;;;;;;;2.27;2.10;;;24.30;99.90;;;;;;5054938;28;20855;-59
2021/08/19 10:14:07;;;;;;;4.00;2.70;;;24.50;99.90;;;;;;5054431;28;20452;-59
2021/08/19 10:16:37;;;;;;;2.20;2.00;;;24.20;99.90;;;;;;5055020;28;20543;-59
2021/08/19 10:19:10;;;;;;;3.40;2.87;;;24.20;99.90;;;;;;5050294;28;20529;-59
2021/08/19 10:21:46;;;;;;;3.07;2.53;;;24.20;99.90;;;;;;5040527;28;20981;-59
2021/08/19 10:24:15;;;;;;;2.50;2.30;;;24.90;99.90;;;;;;5042885;28;20487;-59
2021/08/19 10:26:42;;;;;;;2.30;2.10;;;25.20;99.90;;;;;;5054722;28;20505;-59
2021/08/19 10:29:11;;;;;;;2.50;2.30;;;25.60;99.90;;;;;;5054093;28;20479;-59
2021/08/19 10:31:47;;;;;;;2.60;2.30;;;24.50;99.90;;;;;;5054433;28;20981;-59
2021/08/19 10:34:16;;;;;;;3.80;2.63;;;24.80;99.90;;;;;;5054606;28;20462;-58
2021/08/19 10:36:49;;;;;;;2.57;2.37;;;24.50;99.90;;;;;;5054849;28;20530;-59
2021/08/19 10:39:30;;;;;;;2.27;2.00;;;24.20;99.90;;;;;;5054128;28;20530;-58
2021/08/19 10:41:58;;;;;;;3.47;1.87;;;24.00;99.90;;;;;;5054050;28;20475;-59
2021/08/19 10:44:35;;;;;;;2.27;2.07;;;24.20;99.90;;;;;;5054499;28;20934;-59
2021/08/19 10:47:03;;;;;;;4.30;2.20;;;24.50;99.90;;;;;;5053921;28;20527;-58
2021/08/19 10:49:36;;;;;;;1.90;1.80;;;25.00;99.90;;;;;;5053843;28;20483;-59
2021/08/19 10:52:31;;;;;;;2.63;2.17;;;24.80;99.90;;;;;;5053914;28;20460;-59
2021/08/19 10:55:13;;;;;;;1.80;1.70;;;24.30;99.90;;;;;;5038835;28;20842;-59
2021/08/19 10:57:48;;;;;;;2.03;1.90;;;24.50;99.90;;;;;;5040333;28;20448;-58
2021/08/19 11:00:18;;;;;;;2.70;2.50;;;23.90;99.90;;;;;;5053681;28;20451;-59
2021/08/19 11:02:47;;;;;;;2.70;1.93;;;23.50;99.90;;;;;;5053869;28;20481;-58
2021/08/19 11:05:36;;;;;;;2.90;1.87;;;22.50;99.90;;;;;;5054007;28;20538;-58
2021/08/19 11:08:04;;;;;;;1.77;1.67;;;23.00;99.90;;;;;;5053852;28;20932;-59
2021/08/19 11:10:35;;;;;;;1.80;1.70;;;24.10;99.90;;;;;;5053404;28;20517;-58
2021/08/19 11:13:04;;;;;;;1.90;1.80;;;24.20;99.90;;;;;;5053964;28;20472;-59
2021/08/19 11:15:36;;;;;;;1.77;1.67;;;24.20;99.90;;;;;;5053504;28;20452;-58
2021/08/19 11:18:04;;;;;;;1.80;1.70;;;23.70;99.90;;;;;;5053904;28;20517;-59
2021/08/19 11:20:34;;;;;;;1.80;1.70;;;23.80;99.90;;;;;;5053763;28;21028;-58
2021/08/19 11:23:07;;;;;;;1.70;1.60;;;23.40;99.90;;;;;;5053415;28;20474;-59
2021/08/19 11:25:36;;;;;;;2.70;1.87;;;23.00;99.90;;;;;;5053172;28;20451;-58
2021/08/19 11:28:12;;;;;;;2.17;1.97;;;22.50;99.90;;;;;;5053592;28;20455;-58
2021/08/19 11:30:42;;;;;;;2.10;1.90;;;22.50;99.90;;;;;;5053582;28;20451;-58
2021/08/19 11:33:12;;;;;;;2.20;2.00;;;23.00;99.90;;;;;;5053204;28;20517;-58
2021/08/19 11:35:39;;;;;;;3.40;2.10;;;23.10;99.90;;;;;;5053499;28;20479;-58
2021/08/19 11:38:12;;;;;;;1.63;1.53;;;22.90;99.90;;;;;;5053449;28;20505;-58
2021/08/19 11:40:39;;;;;;;1.83;1.73;;;22.50;99.90;;;;;;5051532;28;20448;-59
2021/08/19 11:43:23;;;;;;;2.50;1.80;;;22.30;99.90;;;;;;5051250;28;20478;-58
2021/08/19 11:45:53;;;;;;;2.43;1.80;;;22.30;99.90;;;;;;5033477;28;20448;-58
2021/08/19 11:48:21;;;;;;;2.20;2.00;;;22.20;99.90;;;;;;5039882;28;20482;-58
2021/08/19 11:50:58;;;;;;;1.90;1.80;;;22.50;99.90;;;;;;5053143;28;20496;-60
2021/08/19 11:53:26;;;;;;;2.33;2.13;;;22.00;99.90;;;;;;5052257;28;20456;-58
2021/08/19 11:55:54;;;;;;;2.37;1.70;;;21.70;99.90;;;;;;5049595;28;20501;-59
2021/08/19 11:58:23;;;;;;;2.23;2.03;;;21.90;99.90;;;;;;5051585;28;20467;-58
2021/08/19 12:01:04;;;;;;;2.70;2.10;;;21.70;99.90;;;;;;5050571;28;20494;-58
2021/08/19 12:03:31;;;;;;;2.37;2.07;;;21.70;99.90;;;;;;5050894;28;20444;-58
2021/08/19 12:06:03;;;;;;;1.97;1.77;;;21.90;99.90;;;;;;5051324;28;20497;-58
2021/08/19 12:08:31;;;;;;;1.93;1.70;;;21.80;99.90;;;;;;5047651;28;20859;-57
2021/08/19 12:11:00;;;;;;;2.50;1.73;;;21.80;99.90;;;;;;5051240;28;20501;-58
2021/08/19 12:13:28;;;;;;;1.80;1.70;;;21.80;99.90;;;;;;5042443;28;20459;-58
2021/08/19 12:15:56;;;;;;;1.77;1.60;;;21.90;99.90;;;;;;5046806;28;20448;-58
2021/08/19 12:18:25;;;;;;;3.43;1.87;;;21.70;99.90;;;;;;5032993;28;20445;-57
2021/08/19 12:21:12;;;;;;;2.07;1.90;;;21.90;99.90;;;;;;5039353;28;20452;-58
2021/08/19 12:23:39;;;;;;;1.83;1.73;;;22.00;99.90;;;;;;5049325;28;20510;-58
2021/08/19 12:26:10;;;;;;;2.10;1.77;;;21.90;99.90;;;;;;5050426;28;20505;-58
2021/08/19 12:28:38;;;;;;;2.20;2.00;;;22.00;99.90;;;;;;5043781;28;20515;-58
2021/08/19 12:31:08;;;;;;;3.50;2.13;;;21.90;99.90;;;;;;5031897;28;20839;-58
2021/08/19 12:33:39;;;;;;;4.33;2.00;;;21.90;99.90;;;;;;5032763;28;20439;-58
2021/08/19 12:36:17;;;;;;;2.30;2.10;;;22.00;99.90;;;;;;5042306;28;20480;-58
2021/08/19 12:38:45;;;;;;;2.63;1.80;;;21.90;99.90;;;;;;5032767;28;20445;-58
2021/08/19 12:41:14;;;;;;;5.23;2.17;;;21.80;99.90;;;;;;5031089;28;20475;-59
2021/08/19 12:43:42;;;;;;;2.90;2.20;;;22.00;99.90;;;;;;5046392;28;20452;-58
2021/08/19 12:46:10;;;;;;;2.40;2.20;;;21.80;99.90;;;;;;5051424;28;20470;-58
2021/08/19 12:48:39;;;;;;;2.07;1.87;;;21.80;99.90;;;;;;5051922;28;20480;-58
2021/08/19 12:51:26;;;;;;;2.03;1.87;;;21.70;99.90;;;;;;5052019;28;20890;-58